Lewisburg, Louisiana
Current Conditions -  °F | °C
As of 9:53 AM on Saturday 25 Oct 2014 (Local Time) from KASD Reporting Station
Clear Clear  
Wind Chill: 66°   Ceiling: Unl
Heat Index: 66°   Visibility: 10mi
Dew Point: 53°   Wind: 6mph
Humidity: 63%   Direction: 360°N
Pressure: 30.16"   Gusts: NA
Location:  30.3898°N, 90.0068°W
Report Text: KASD 251453Z AUTO 36005KT 10SM CLR 19/12 A3016 RMK AO2 SLP212 T01890117 51015
Loading
Personal Weather Stations






























Interactive Weather Map
Tropical Storm Tracking
New forecast layout! Learn more

10-Day Weather Forecast

Advertisements
Track Severe Weather on mobile